createdAt,value
2019-03-23T00:00:02.249Z,28.63
2019-03-23T00:02:31.750Z,30.63
2019-03-23T00:05:00.251Z,29.90
2019-03-23T00:07:28.469Z,30.30
2019-03-23T00:09:58.669Z,29.77
2019-03-23T00:12:26.824Z,29.30
2019-03-23T00:14:55.076Z,31.50
2019-03-23T00:17:23.380Z,28.73
2019-03-23T00:19:52.646Z,28.03
2019-03-23T00:22:20.953Z,27.80
2019-03-23T00:24:49.310Z,29.07
2019-03-23T00:27:17.649Z,28.97
2019-03-23T00:29:45.912Z,26.47
2019-03-23T00:32:14.339Z,26.87
2019-03-23T00:34:42.618Z,29.13
2019-03-23T00:37:10.900Z,28.70
2019-03-23T00:39:39.097Z,29.47
2019-03-23T00:42:07.350Z,30.07
2019-03-23T00:44:35.764Z,31.37
2019-03-23T00:47:03.899Z,28.80
2019-03-23T00:49:32.195Z,30.23
2019-03-23T00:52:00.433Z,29.10
2019-03-23T00:54:28.700Z,28.77
2019-03-23T00:56:57.008Z,30.23
2019-03-23T00:59:25.298Z,30.33
2019-03-23T01:01:53.612Z,29.60
2019-03-23T01:04:21.884Z,28.00
2019-03-23T01:06:52.312Z,29.40
2019-03-23T01:09:20.308Z,29.27
2019-03-23T01:11:48.566Z,29.90
2019-03-23T01:14:16.890Z,28.83
2019-03-23T01:16:45.205Z,28.27
2019-03-23T01:19:13.467Z,27.47
2019-03-23T01:21:43.874Z,28.67
2019-03-23T01:24:12.025Z,29.00
2019-03-23T01:26:40.329Z,28.70
2019-03-23T01:29:09.044Z,28.90
2019-03-23T01:31:37.278Z,26.50
2019-03-23T01:34:05.481Z,30.33
2019-03-23T01:36:33.849Z,29.30
2019-03-23T01:39:02.675Z,28.87
2019-03-23T01:41:30.988Z,29.50
2019-03-23T01:43:59.218Z,29.57
2019-03-23T01:46:27.460Z,28.70
2019-03-23T01:48:55.656Z,28.63
2019-03-23T01:51:23.978Z,30.07
2019-03-23T01:53:52.739Z,27.30
2019-03-23T01:56:21.103Z,27.73
2019-03-23T01:58:51.266Z,28.80
2019-03-23T02:01:19.589Z,30.37
2019-03-23T02:03:47.679Z,31.27
2019-03-23T02:06:16.017Z,35.53
2019-03-23T02:08:44.320Z,36.83
2019-03-23T02:11:12.638Z,31.63
2019-03-23T02:13:40.980Z,30.83
2019-03-23T02:16:09.241Z,31.97
2019-03-23T02:18:37.538Z,37.27
2019-03-23T02:21:05.914Z,35.27
2019-03-23T02:23:34.198Z,38.50
2019-03-23T02:26:02.536Z,38.13
2019-03-23T02:28:30.957Z,33.33
2019-03-23T02:30:59.865Z,32.73
2019-03-23T02:33:28.180Z,34.97
2019-03-23T02:35:56.599Z,36.60
2019-03-23T02:38:25.109Z,38.37
2019-03-23T02:40:53.411Z,41.43
2019-03-23T02:43:21.729Z,40.67
2019-03-23T02:45:50.247Z,38.73
2019-03-23T02:48:18.522Z,39.23
2019-03-23T02:50:46.964Z,39.53
2019-03-23T02:53:15.427Z,39.40
2019-03-23T02:55:43.842Z,40.20
2019-03-23T02:58:12.055Z,40.90
2019-03-23T03:00:40.362Z,42.77
2019-03-23T03:03:08.640Z,43.03
2019-03-23T03:05:36.869Z,42.50
2019-03-23T03:08:05.530Z,43.47
2019-03-23T03:10:38.801Z,42.73
2019-03-23T03:13:07.281Z,44.87
2019-03-23T03:15:35.543Z,43.97
2019-03-23T03:18:03.931Z,43.97
2019-03-23T03:20:32.246Z,42.47
2019-03-23T03:23:00.714Z,42.53
2019-03-23T03:25:29.084Z,41.70
2019-03-23T03:27:58.604Z,40.93
2019-03-23T03:30:26.847Z,43.30
2019-03-23T03:32:55.244Z,44.00
2019-03-23T03:35:24.168Z,42.83
2019-03-23T03:37:56.921Z,43.27
2019-03-23T03:40:22.993Z,42.87
2019-03-23T03:42:54.234Z,44.63
2019-03-23T03:45:24.210Z,43.07
2019-03-23T03:47:55.102Z,45.37
2019-03-23T03:50:23.448Z,43.00
2019-03-23T03:52:51.675Z,47.37
2019-03-23T03:55:20.134Z,61.70
2019-03-23T03:57:48.508Z,67.13
2019-03-23T04:00:17.020Z,70.87
2019-03-23T04:02:45.416Z,71.37
2019-03-23T04:05:14.493Z,82.07
2019-03-23T04:07:42.868Z,80.23
2019-03-23T04:10:11.154Z,74.03
2019-03-23T04:12:39.584Z,73.73
2019-03-23T04:15:08.618Z,62.27
2019-03-23T04:17:36.901Z,60.57
2019-03-23T04:20:05.396Z,59.67
2019-03-23T04:22:33.795Z,59.17
2019-03-23T04:25:02.216Z,58.03
2019-03-23T04:27:30.466Z,55.30
2019-03-23T04:29:59.531Z,54.13
2019-03-23T04:32:27.849Z,54.13
2019-03-23T04:34:58.622Z,54.00
2019-03-23T04:37:29.117Z,54.27
2019-03-23T04:39:57.488Z,51.80
2019-03-23T04:42:25.793Z,53.70
2019-03-23T04:44:54.062Z,53.77
2019-03-23T04:47:22.389Z,55.00
2019-03-23T04:49:51.984Z,54.77
2019-03-23T04:52:20.181Z,55.90
2019-03-23T04:54:48.433Z,56.73
2019-03-23T04:57:16.676Z,54.97
2019-03-23T04:59:45.001Z,60.03
2019-03-23T05:02:13.226Z,59.50
2019-03-23T05:04:41.450Z,58.60
2019-03-23T05:07:09.822Z,61.23
2019-03-23T05:09:37.949Z,60.57
2019-03-23T05:12:06.450Z,59.97
2019-03-23T05:14:34.643Z,59.70
2019-03-23T05:17:03.062Z,63.03
2019-03-23T05:19:31.643Z,62.37
2019-03-23T05:21:59.848Z,62.70
2019-03-23T05:24:28.159Z,62.13
2019-03-23T05:26:56.350Z,61.37
2019-03-23T05:29:24.642Z,66.17
2019-03-23T05:31:53.179Z,65.90
2019-03-23T05:34:21.366Z,62.73
2019-03-23T05:36:49.668Z,64.93
2019-03-23T05:39:17.949Z,64.03
2019-03-23T05:41:46.259Z,62.97
2019-03-23T05:44:14.528Z,62.47
2019-03-23T05:46:42.829Z,59.10
2019-03-23T05:49:11.077Z,61.17
2019-03-23T05:51:39.366Z,56.93
2019-03-23T05:54:07.549Z,54.77
2019-03-23T05:56:35.774Z,54.57
2019-03-23T05:59:14.284Z,54.07
2019-03-23T06:01:42.588Z,52.97
2019-03-23T06:04:10.874Z,52.77
2019-03-23T06:06:39.244Z,51.50
2019-03-23T06:09:07.596Z,51.63
2019-03-23T06:11:35.798Z,51.00
2019-03-23T06:14:04.501Z,50.67
2019-03-23T06:16:32.733Z,50.07
2019-03-23T06:19:00.987Z,48.03
2019-03-23T06:21:29.450Z,49.53
2019-03-23T06:23:57.751Z,49.27
2019-03-23T06:26:26.101Z,47.73
2019-03-23T06:28:54.496Z,48.90
2019-03-23T06:31:22.694Z,47.83
2019-03-23T06:33:51.100Z,45.40
2019-03-23T06:36:19.298Z,42.10
2019-03-23T06:38:47.537Z,37.30
2019-03-23T06:41:15.875Z,38.13
2019-03-23T06:43:45.529Z,35.23
2019-03-23T06:46:13.718Z,36.30
2019-03-23T06:48:41.955Z,34.40
2019-03-23T06:51:10.248Z,33.37
2019-03-23T06:53:38.456Z,34.40
2019-03-23T06:56:07.064Z,32.87
2019-03-23T06:58:35.600Z,33.50
2019-03-23T07:01:04.912Z,30.93
2019-03-23T07:03:35.561Z,30.50
2019-03-23T07:06:04.464Z,30.43
2019-03-23T07:08:33.960Z,29.17
2019-03-23T07:11:02.136Z,27.87
2019-03-23T07:13:32.879Z,27.60
2019-03-23T07:16:03.943Z,27.20
2019-03-23T07:18:32.137Z,26.30
2019-03-23T07:21:00.430Z,26.77
2019-03-23T07:23:28.667Z,24.27
2019-03-23T07:26:04.781Z,25.17
2019-03-23T07:28:28.965Z,25.47
2019-03-23T07:30:57.491Z,22.67
2019-03-23T07:33:25.857Z,23.53
2019-03-23T07:35:54.744Z,22.73
2019-03-23T07:38:23.245Z,23.53
2019-03-23T07:40:51.749Z,23.00
2019-03-23T07:43:22.924Z,23.83
2019-03-23T07:45:51.200Z,23.17
2019-03-23T07:48:19.547Z,23.47
2019-03-23T07:50:47.878Z,21.37
2019-03-23T07:53:16.424Z,21.97
2019-03-23T07:55:46.502Z,21.47
2019-03-23T07:58:14.792Z,18.40
2019-03-23T08:00:44.149Z,16.00
2019-03-23T08:03:13.774Z,14.97
2019-03-23T08:05:43.309Z,16.30
2019-03-23T08:08:11.577Z,15.63
2019-03-23T08:10:39.957Z,15.20
2019-03-23T08:13:08.243Z,12.50
2019-03-23T08:15:37.773Z,13.43
2019-03-23T08:18:06.201Z,10.57
2019-03-23T08:20:34.856Z,9.10
2019-03-23T08:23:03.259Z,9.13
2019-03-23T08:25:32.066Z,8.80
2019-03-23T08:28:03.733Z,8.53
2019-03-23T08:30:32.257Z,9.40
2019-03-23T08:33:01.760Z,9.57
2019-03-23T08:35:30.294Z,9.20
2019-03-23T08:37:58.928Z,9.43
2019-03-23T08:40:27.249Z,9.47
2019-03-23T08:42:56.941Z,9.07
2019-03-23T08:45:25.088Z,8.90
2019-03-23T08:47:53.317Z,8.27
2019-03-23T08:50:21.484Z,8.93
2019-03-23T08:52:49.774Z,7.23
2019-03-23T08:55:18.076Z,7.17
2019-03-23T08:57:49.174Z,7.27
2019-03-23T09:00:17.409Z,6.93
2019-03-23T09:02:45.747Z,7.33
2019-03-23T09:05:13.916Z,7.47
2019-03-23T09:07:42.193Z,7.60
2019-03-23T09:10:12.309Z,6.90
2019-03-23T09:12:40.610Z,6.53
2019-03-23T09:15:08.952Z,6.70
2019-03-23T09:17:37.184Z,6.50
2019-03-23T09:20:06.340Z,6.90
2019-03-23T09:22:34.488Z,6.30
2019-03-23T09:25:02.785Z,6.30
2019-03-23T09:27:31.519Z,5.57
2019-03-23T09:29:59.875Z,5.83
2019-03-23T09:32:28.392Z,6.40
2019-03-23T09:34:56.723Z,6.40
2019-03-23T09:37:25.244Z,6.43
2019-03-23T09:39:53.781Z,6.90
2019-03-23T09:42:22.010Z,6.30
2019-03-23T09:44:50.416Z,6.87
2019-03-23T09:47:18.677Z,6.43
2019-03-23T09:49:46.886Z,7.83
2019-03-23T09:52:15.161Z,6.80
2019-03-23T09:54:43.382Z,7.50
2019-03-23T09:57:11.852Z,7.17
2019-03-23T09:59:41.442Z,7.83
2019-03-23T10:02:09.883Z,8.47
2019-03-23T10:04:38.224Z,8.43
2019-03-23T10:07:06.571Z,6.60
2019-03-23T10:09:34.980Z,6.30
2019-03-23T10:12:04.243Z,7.30
2019-03-23T10:14:32.542Z,7.03
2019-03-23T10:17:00.921Z,5.70
2019-03-23T10:19:31.040Z,6.20
2019-03-23T10:21:59.277Z,5.20
2019-03-23T10:24:27.576Z,4.83
2019-03-23T10:26:55.854Z,5.20
2019-03-23T10:29:24.163Z,5.67
2019-03-23T10:31:52.416Z,6.60
2019-03-23T10:34:20.755Z,5.20
2019-03-23T10:36:48.974Z,5.10
2019-03-23T10:39:17.243Z,5.47
2019-03-23T10:41:45.730Z,5.50
2019-03-23T10:44:13.996Z,4.93
2019-03-23T10:46:42.240Z,6.33
2019-03-23T10:49:10.568Z,5.10
2019-03-23T10:51:38.910Z,5.43
2019-03-23T10:54:07.161Z,5.87
2019-03-23T10:56:35.478Z,5.70
2019-03-23T10:59:03.702Z,5.97
2019-03-23T11:01:32.065Z,5.90
2019-03-23T11:04:00.436Z,5.90
2019-03-23T11:06:28.641Z,6.17
2019-03-23T11:08:56.963Z,6.53
2019-03-23T11:11:25.287Z,6.53
2019-03-23T11:13:53.477Z,6.37
2019-03-23T11:16:21.831Z,7.00
2019-03-23T11:18:50.087Z,5.83
2019-03-23T11:21:20.528Z,6.30
2019-03-23T11:23:48.767Z,6.23
2019-03-23T11:26:17.009Z,6.50
2019-03-23T11:28:45.234Z,6.30
2019-03-23T11:31:14.434Z,6.23
2019-03-23T11:33:42.722Z,6.47
2019-03-23T11:36:11.015Z,6.50
2019-03-23T11:38:39.354Z,5.80
2019-03-23T11:41:07.740Z,6.40
2019-03-23T11:43:36.147Z,6.23
2019-03-23T11:46:04.492Z,6.07
2019-03-23T11:48:32.862Z,6.57
2019-03-23T11:51:01.094Z,6.80
2019-03-23T11:53:30.652Z,6.67
2019-03-23T11:55:58.936Z,6.10
2019-03-23T11:58:27.740Z,6.50
2019-03-23T12:00:56.038Z,6.90
2019-03-23T12:03:24.313Z,7.07
2019-03-23T12:05:52.745Z,6.60
2019-03-23T12:08:20.953Z,6.43
2019-03-23T12:10:49.664Z,7.30
2019-03-23T12:13:18.038Z,6.97
2019-03-23T12:15:46.378Z,7.10
2019-03-23T12:18:14.674Z,7.10
2019-03-23T12:20:42.902Z,7.00
2019-03-23T12:23:11.237Z,7.83
2019-03-23T12:25:39.422Z,7.67
2019-03-23T12:28:07.735Z,8.13
2019-03-23T12:30:36.044Z,8.23
2019-03-23T12:33:04.442Z,9.03
2019-03-23T12:35:32.829Z,7.93
2019-03-23T12:38:01.246Z,8.00
2019-03-23T12:40:29.513Z,7.87
2019-03-23T12:42:57.860Z,7.90
2019-03-23T12:45:26.354Z,8.70
2019-03-23T12:47:54.654Z,8.47
2019-03-23T12:50:22.927Z,9.27
2019-03-23T12:52:57.318Z,8.53
2019-03-23T12:55:23.575Z,8.90
2019-03-23T12:57:51.792Z,9.03
2019-03-23T13:00:20.177Z,9.20
2019-03-23T13:02:48.548Z,8.43
2019-03-23T13:05:16.794Z,8.80
2019-03-23T13:07:44.965Z,8.40
2019-03-23T13:10:13.625Z,9.60
2019-03-23T13:12:42.171Z,9.00
2019-03-23T13:15:10.863Z,8.63
2019-03-23T13:17:39.212Z,8.83
2019-03-23T13:20:08.790Z,9.47
2019-03-23T13:22:37.083Z,9.10
2019-03-23T13:25:06.955Z,9.23
2019-03-23T13:27:35.218Z,9.03
2019-03-23T13:30:04.024Z,9.60
2019-03-23T13:32:32.321Z,9.83
2019-03-23T13:35:02.171Z,9.03
2019-03-23T13:37:30.385Z,9.07
2019-03-23T13:39:58.726Z,9.07
2019-03-23T13:42:26.942Z,9.03
2019-03-23T13:44:56.544Z,9.20
2019-03-23T13:47:24.865Z,9.10
2019-03-23T13:49:53.099Z,9.00
2019-03-23T13:52:21.322Z,8.43
2019-03-23T13:54:49.569Z,9.20
2019-03-23T13:57:17.911Z,9.57
2019-03-23T13:59:46.742Z,9.10
2019-03-23T14:02:14.977Z,9.07
2019-03-23T14:04:43.234Z,8.93
2019-03-23T14:07:11.442Z,9.57
2019-03-23T14:09:39.726Z,9.20
2019-03-23T14:12:09.544Z,9.63
2019-03-23T14:14:37.892Z,8.93
2019-03-23T14:17:06.532Z,9.20
2019-03-23T14:19:34.773Z,9.33
2019-03-23T14:22:03.286Z,9.07
2019-03-23T14:24:33.384Z,8.70
2019-03-23T14:27:03.549Z,9.47
2019-03-23T14:29:34.601Z,10.17
2019-03-23T14:32:03.177Z,9.57
2019-03-23T14:34:31.480Z,9.37
2019-03-23T14:36:59.706Z,9.67
2019-03-23T14:39:27.969Z,9.63
2019-03-23T14:42:04.897Z,9.90
2019-03-23T14:44:29.524Z,10.30
2019-03-23T14:46:57.922Z,9.60
2019-03-23T14:49:26.316Z,9.40
2019-03-23T14:51:54.842Z,9.13
2019-03-23T14:54:24.377Z,10.03
2019-03-23T14:56:52.648Z,9.37
2019-03-23T14:59:20.975Z,9.50
2019-03-23T15:01:49.295Z,9.50
2019-03-23T15:04:17.550Z,9.03
2019-03-23T15:06:46.062Z,9.63
2019-03-23T15:09:14.448Z,9.80
2019-03-23T15:11:42.690Z,9.30
2019-03-23T15:14:10.905Z,9.70
2019-03-23T15:16:41.015Z,9.27
2019-03-23T15:19:09.583Z,9.40
2019-03-23T15:21:38.961Z,8.43
2019-03-23T15:24:07.362Z,9.40
2019-03-23T15:26:35.671Z,9.87
2019-03-23T15:29:04.106Z,9.60
2019-03-23T15:31:33.325Z,8.97
2019-03-23T15:34:04.068Z,8.80
2019-03-23T15:36:32.374Z,9.07
2019-03-23T15:39:01.058Z,8.90
2019-03-23T15:41:29.541Z,9.00
2019-03-23T15:44:02.807Z,8.60
2019-03-23T15:46:31.094Z,8.30
2019-03-23T15:48:59.530Z,8.70
2019-03-23T15:51:28.112Z,8.53
2019-03-23T15:53:56.894Z,8.87
2019-03-23T15:56:26.282Z,8.90
2019-03-23T15:58:55.838Z,8.47
2019-03-23T16:01:24.160Z,8.80
2019-03-23T16:03:52.735Z,8.20
2019-03-23T16:06:21.145Z,8.03
2019-03-23T16:08:49.478Z,7.97
2019-03-23T16:11:17.817Z,7.33
2019-03-23T16:13:46.111Z,8.00
2019-03-23T16:16:14.319Z,7.50
2019-03-23T16:18:44.600Z,7.37
2019-03-23T16:21:15.568Z,7.60
2019-03-23T16:23:44.314Z,7.37
2019-03-23T16:26:12.753Z,7.87
2019-03-23T16:28:45.522Z,7.10
2019-03-23T16:31:14.840Z,6.70
2019-03-23T16:33:43.335Z,7.27
2019-03-23T16:36:15.734Z,7.70
2019-03-23T16:38:44.412Z,7.77
2019-03-23T16:41:12.837Z,8.10
2019-03-23T16:43:41.102Z,7.50
2019-03-23T16:46:09.497Z,7.87
2019-03-23T16:48:37.975Z,8.40
2019-03-23T16:51:06.357Z,8.77
2019-03-23T16:53:34.827Z,8.03
2019-03-23T16:56:05.585Z,8.30
2019-03-23T16:58:35.234Z,8.73
2019-03-23T17:01:03.752Z,8.33
2019-03-23T17:03:32.326Z,9.57
2019-03-23T17:06:00.527Z,9.17
2019-03-23T17:08:28.917Z,9.13
2019-03-23T17:10:57.284Z,9.50
2019-03-23T17:13:25.741Z,9.33
2019-03-23T17:15:54.740Z,9.63
2019-03-23T17:18:23.141Z,9.90
2019-03-23T17:20:51.628Z,9.77
2019-03-23T17:23:19.915Z,10.60
2019-03-23T17:25:48.293Z,10.93
2019-03-23T17:28:16.666Z,10.90
2019-03-23T17:30:45.394Z,11.83
2019-03-23T17:33:14.219Z,11.77
2019-03-23T17:35:42.491Z,11.60
2019-03-23T17:38:10.834Z,12.43
2019-03-23T17:40:39.091Z,13.17
2019-03-23T17:43:07.749Z,15.53
2019-03-23T17:45:35.980Z,18.67
2019-03-23T17:48:07.219Z,18.10
2019-03-23T17:50:35.568Z,16.77
2019-03-23T17:53:04.962Z,16.87
2019-03-23T17:55:33.458Z,16.73
2019-03-23T17:58:01.709Z,17.00
2019-03-23T18:00:32.122Z,16.97
2019-03-23T18:03:00.651Z,17.03
2019-03-23T18:05:28.981Z,16.83
2019-03-23T18:07:57.501Z,16.00
2019-03-23T18:10:28.109Z,16.33
2019-03-23T18:12:56.174Z,17.23
2019-03-23T18:15:24.959Z,17.60
2019-03-23T18:17:53.402Z,17.90
2019-03-23T18:20:21.822Z,17.47
2019-03-23T18:22:50.098Z,16.90
2019-03-23T18:25:18.537Z,18.23
2019-03-23T18:27:46.829Z,18.47
2019-03-23T18:30:52.651Z,19.10
2019-03-23T18:33:22.871Z,18.63
2019-03-23T18:35:51.209Z,20.23
2019-03-23T18:38:19.502Z,19.47
2019-03-23T18:40:47.861Z,20.20
2019-03-23T18:43:26.706Z,20.90
2019-03-23T18:45:46.549Z,20.33
2019-03-23T18:48:14.770Z,20.30
2019-03-23T18:50:44.623Z,21.00
2019-03-23T18:53:12.943Z,21.93
2019-03-23T18:55:41.156Z,22.83
2019-03-23T18:58:12.509Z,25.20
2019-03-23T19:00:42.246Z,25.23
2019-03-23T19:03:11.583Z,24.90
2019-03-23T19:05:39.849Z,25.10
2019-03-23T19:08:08.217Z,25.73
2019-03-23T19:10:37.897Z,24.90
2019-03-23T19:13:06.495Z,24.83
2019-03-23T19:15:34.854Z,25.40
2019-03-23T19:18:03.322Z,25.83
2019-03-23T19:20:31.628Z,26.13
2019-03-23T19:23:01.318Z,26.93
2019-03-23T19:25:29.682Z,25.70
2019-03-23T19:27:58.027Z,27.27
2019-03-23T19:30:26.369Z,27.90
2019-03-23T19:32:54.820Z,27.93
2019-03-23T19:35:23.259Z,27.50
2019-03-23T19:37:51.627Z,28.50
2019-03-23T19:40:19.866Z,29.40
2019-03-23T19:42:48.228Z,29.30
2019-03-23T19:45:16.522Z,30.57
2019-03-23T19:47:44.752Z,29.83
2019-03-23T19:50:13.000Z,30.43
2019-03-23T19:52:41.300Z,31.00
2019-03-23T19:55:09.960Z,30.33
2019-03-23T19:57:38.258Z,30.70
2019-03-23T20:00:08.707Z,33.50
2019-03-23T20:02:37.090Z,32.07
2019-03-23T20:05:07.823Z,32.60
2019-03-23T20:07:37.923Z,32.17
2019-03-23T20:10:06.502Z,33.80
2019-03-23T20:12:34.896Z,33.93
2019-03-23T20:15:03.609Z,34.07
2019-03-23T20:17:32.152Z,33.97
2019-03-23T20:20:00.497Z,34.53
2019-03-23T20:22:28.977Z,34.97
2019-03-23T20:24:57.257Z,35.60
2019-03-23T20:27:28.554Z,34.53
2019-03-23T20:29:56.791Z,34.47
2019-03-23T20:32:26.327Z,34.27
2019-03-23T20:34:54.584Z,34.40
2019-03-23T20:37:22.882Z,36.20
2019-03-23T20:39:51.329Z,34.10
2019-03-23T20:42:19.819Z,34.80
2019-03-23T20:44:48.185Z,33.83
2019-03-23T20:47:16.496Z,35.57
2019-03-23T20:49:44.804Z,35.37
2019-03-23T20:52:13.117Z,32.77
2019-03-23T20:54:41.320Z,34.43
2019-03-23T20:57:09.581Z,35.07
2019-03-23T20:59:37.785Z,33.37
2019-03-23T21:02:06.133Z,34.70
2019-03-23T21:04:34.548Z,34.07
2019-03-23T21:07:02.852Z,34.83
2019-03-23T21:09:31.360Z,33.80
2019-03-23T21:11:59.658Z,34.97
2019-03-23T21:14:28.252Z,34.43
2019-03-23T21:16:56.479Z,34.43
2019-03-23T21:19:24.752Z,36.07
2019-03-23T21:21:53.365Z,34.53
2019-03-23T21:24:22.063Z,34.90
2019-03-23T21:26:50.976Z,35.97
2019-03-23T21:29:19.339Z,35.23
2019-03-23T21:31:49.218Z,35.50
2019-03-23T21:34:17.828Z,34.80
2019-03-23T21:36:46.313Z,37.20
2019-03-23T21:39:14.628Z,38.07
2019-03-23T21:41:43.876Z,38.17
2019-03-23T21:44:12.349Z,37.47
2019-03-23T21:46:40.980Z,38.23
2019-03-23T21:49:09.430Z,40.30
2019-03-23T21:51:37.805Z,42.07
2019-03-23T21:54:06.285Z,40.37
2019-03-23T21:56:34.520Z,40.97
2019-03-23T21:59:02.989Z,40.93
2019-03-23T22:01:31.235Z,41.50
2019-03-23T22:04:01.041Z,41.90
2019-03-23T22:06:29.417Z,43.23
2019-03-23T22:08:57.968Z,43.00
2019-03-23T22:11:26.291Z,41.20
2019-03-23T22:13:54.594Z,42.57
2019-03-23T22:16:26.102Z,40.93
2019-03-23T22:18:54.508Z,43.67
2019-03-23T22:21:25.279Z,42.27
2019-03-23T22:23:53.407Z,47.77
2019-03-23T22:26:21.858Z,50.43
2019-03-23T22:28:50.150Z,57.70
2019-03-23T22:31:21.461Z,66.67
2019-03-23T22:33:51.098Z,63.70
2019-03-23T22:36:19.255Z,72.80
2019-03-23T22:38:49.125Z,73.70
2019-03-23T22:41:17.237Z,74.67
2019-03-23T22:43:45.396Z,71.97
2019-03-23T22:46:13.517Z,69.47
2019-03-23T22:48:41.755Z,69.60
2019-03-23T22:51:10.221Z,62.10
2019-03-23T22:53:38.444Z,60.30
2019-03-23T22:56:06.652Z,58.23
2019-03-23T22:58:34.930Z,54.13
2019-03-23T23:01:03.775Z,51.63
2019-03-23T23:03:32.736Z,46.57
2019-03-23T23:06:01.255Z,44.20
2019-03-23T23:08:30.228Z,41.00
2019-03-23T23:10:58.875Z,42.53
2019-03-23T23:13:27.167Z,41.50
2019-03-23T23:15:55.671Z,38.87
2019-03-23T23:18:23.955Z,37.67
2019-03-23T23:20:52.378Z,37.80
2019-03-23T23:23:20.751Z,36.13
2019-03-23T23:25:49.064Z,34.33
2019-03-23T23:28:17.380Z,41.40
2019-03-23T23:30:45.720Z,48.73
2019-03-23T23:33:14.133Z,48.00
2019-03-23T23:35:42.570Z,46.87
2019-03-23T23:38:11.068Z,47.27
2019-03-23T23:40:39.331Z,43.23
2019-03-23T23:43:07.453Z,30.87
2019-03-23T23:45:36.053Z,28.07
2019-03-23T23:48:05.311Z,28.73
2019-03-23T23:50:33.598Z,26.87
2019-03-23T23:53:01.783Z,26.40
2019-03-23T23:55:29.946Z,24.83
2019-03-23T23:57:58.278Z,24.13
